Strona główna
METAR-TAF:

METAR-TAF

Lotnisko :

Port lotniczy Denpasar

Denpasar, Indonezja

Szerokość geograficzna: 08-44-53S, Długość geograficzna: 115-10-03E, wysokość: 4 m

Aktualna obserwacja pogody

Raport powstał 28 minut temu, godzina 12:00 UTC
Wiatr 2 kt od zachód
Temperatura 28°C
Wilgotność 84%
Ciśnienie 1007 hPa
Widzialność 10 km lub więcej
Mało chmury na wysokości 1700 ft

METAR: WADD 261200Z 26002KT 9999 FEW017 28/25 Q1007 NOSIG

czas: 19:28 (12:28 UTC)

Prognoza

Raport powstał 1 godzina i 28 minut temu, godzina 11:00 UTC
Prognoza ważna od 26 godzina 12 UTC do 27 godzina 12 UTC
Wiatr 5 kt z kierunków zmiennych
Widzialność 10 km lub więcej
Rozproszone chmury na wysokości 1600 ft

TAF: WADD 261100Z 2612/2712 VRB05KT 9999 SCT016

Obserwacja i prognoza pogody dla ponad 4000 lotnisk (raport METAR i TAF).

Dostępne stacje oznaczono żółtymi i czerwonymi punktami na mapie.

Najedź kursorem aby zobaczyć nazwę stacji.

Kliknij aby zobaczyć obserwacje i prognozy pogody.

Aby zmienić mapę: kliknij na zielony przycisk z czarnym krzyżykiem, aby powiększyć; na zielony przycisk z myślnikiem, aby pomniejszyć; na zielone strzałki, aby przejść do map sąsiednich.


METAR-TAF: